createdAt,value
2023-05-14T00:00:42.234Z,100.00
2023-05-14T00:03:08.924Z,100.00
2023-05-14T00:05:35.682Z,100.00
2023-05-14T00:08:02.444Z,100.00
2023-05-14T00:10:28.977Z,100.00
2023-05-14T00:12:55.662Z,100.00
2023-05-14T00:15:22.341Z,100.00
2023-05-14T00:17:48.915Z,100.00
2023-05-14T00:20:15.594Z,100.00
2023-05-14T00:22:42.147Z,100.00
2023-05-14T00:25:09.104Z,100.00
2023-05-14T00:27:37.765Z,100.00
2023-05-14T00:30:06.975Z,100.00
2023-05-14T00:32:34.014Z,100.00
2023-05-14T00:35:02.923Z,100.00
2023-05-14T00:37:29.533Z,100.00
2023-05-14T00:39:56.069Z,100.00
2023-05-14T00:42:22.674Z,100.00
2023-05-14T00:44:49.194Z,100.00
2023-05-14T00:47:15.926Z,100.00
2023-05-14T00:49:43.166Z,100.00
2023-05-14T00:52:11.340Z,100.00
2023-05-14T00:54:37.950Z,100.00
2023-05-14T00:57:06.594Z,100.00
2023-05-14T00:59:33.392Z,100.00
2023-05-14T01:02:00.062Z,100.00
2023-05-14T01:04:27.145Z,100.00
2023-05-14T01:07:12.717Z,100.00
2023-05-14T01:09:50.176Z,100.00
2023-05-14T01:12:40.359Z,100.00
2023-05-14T01:15:12.484Z,100.00
2023-05-14T01:17:45.346Z,100.00
2023-05-14T01:20:12.698Z,100.00
2023-05-14T01:22:39.237Z,100.00
2023-05-14T01:25:06.623Z,100.00
2023-05-14T01:27:47.286Z,100.00
2023-05-14T01:30:19.779Z,100.00
2023-05-14T01:32:51.155Z,100.00
2023-05-14T01:35:18.838Z,100.00
2023-05-14T01:37:47.509Z,100.00
2023-05-14T01:40:14.429Z,100.00
2023-05-14T01:42:41.607Z,100.00
2023-05-14T01:45:08.740Z,100.00
2023-05-14T01:47:35.457Z,100.00
2023-05-14T01:50:02.110Z,100.00
2023-05-14T01:52:28.679Z,100.00
2023-05-14T01:54:55.361Z,100.00
2023-05-14T01:57:21.922Z,100.00
2023-05-14T02:02:17.299Z,100.00
2023-05-14T02:04:44.337Z,100.00
2023-05-14T02:07:10.912Z,100.00
2023-05-14T02:09:37.515Z,100.00
2023-05-14T02:12:04.333Z,100.00
2023-05-14T02:14:31.023Z,100.00
2023-05-14T02:16:57.666Z,100.00
2023-05-14T02:19:24.502Z,100.00
2023-05-14T02:21:51.044Z,100.00
2023-05-14T02:24:17.631Z,100.00
2023-05-14T02:26:44.179Z,100.00
2023-05-14T02:29:11.496Z,100.00
2023-05-14T02:31:38.092Z,100.00
2023-05-14T02:34:06.687Z,100.00
2023-05-14T02:36:33.603Z,100.00
2023-05-14T02:39:01.102Z,100.00
2023-05-14T02:41:27.953Z,100.00
2023-05-14T02:43:54.869Z,100.00
2023-05-14T02:46:21.740Z,100.00
2023-05-14T02:48:48.300Z,100.00
2023-05-14T02:51:14.804Z,100.00
2023-05-14T02:53:41.525Z,100.00
2023-05-14T02:56:08.172Z,100.00
2023-05-14T02:58:34.788Z,100.00
2023-05-14T03:01:01.414Z,100.00
2023-05-14T03:03:30.168Z,100.00
2023-05-14T03:05:57.414Z,100.00
2023-05-14T03:08:24.099Z,100.00
2023-05-14T03:10:50.697Z,100.00
2023-05-14T03:13:19.878Z,100.00
2023-05-14T03:15:47.194Z,100.00
2023-05-14T03:18:14.200Z,100.00
2023-05-14T03:20:41.467Z,100.00
2023-05-14T03:23:08.085Z,100.00
2023-05-14T03:25:34.706Z,100.00
2023-05-14T03:28:01.242Z,100.00
2023-05-14T03:30:27.920Z,100.00
2023-05-14T03:32:54.512Z,100.00
2023-05-14T03:35:21.083Z,100.00
2023-05-14T03:37:47.582Z,100.00
2023-05-14T03:40:14.138Z,100.00
2023-05-14T03:42:42.963Z,100.00
2023-05-14T03:45:10.958Z,100.00
2023-05-14T03:47:37.928Z,100.00
2023-05-14T03:50:06.416Z,100.00
2023-05-14T03:52:33.289Z,100.00
2023-05-14T03:54:59.878Z,100.00
2023-05-14T03:57:26.405Z,100.00
2023-05-14T03:59:53.000Z,100.00
2023-05-14T04:02:19.530Z,100.00
2023-05-14T04:04:47.007Z,100.00
2023-05-14T04:07:17.377Z,100.00
2023-05-14T04:09:43.929Z,100.00
2023-05-14T04:12:11.681Z,100.00
2023-05-14T04:14:38.663Z,100.00
2023-05-14T04:17:05.356Z,100.00
2023-05-14T04:19:31.913Z,100.00
2023-05-14T04:21:58.476Z,100.00
2023-05-14T04:24:25.126Z,100.00
2023-05-14T04:26:51.662Z,100.00
2023-05-14T04:29:18.221Z,100.00
2023-05-14T04:31:44.921Z,100.00
2023-05-14T04:34:11.591Z,100.00
2023-05-14T04:36:38.156Z,100.00
2023-05-14T04:39:05.951Z,100.00
2023-05-14T04:41:33.305Z,100.00
2023-05-14T04:44:01.786Z,100.00
2023-05-14T04:46:28.827Z,100.00
2023-05-14T04:48:56.467Z,100.00
2023-05-14T04:51:23.795Z,100.00
2023-05-14T04:53:50.412Z,100.00
2023-05-14T04:56:16.993Z,100.00
2023-05-14T04:58:43.522Z,100.00
2023-05-14T05:01:10.149Z,100.00
2023-05-14T05:03:36.788Z,100.00
2023-05-14T05:06:03.535Z,100.00
2023-05-14T05:08:30.792Z,100.00
2023-05-14T05:10:57.334Z,100.00
2023-05-14T05:13:23.884Z,100.00
2023-05-14T05:15:51.079Z,100.00
2023-05-14T05:18:17.710Z,100.00
2023-05-14T05:20:44.227Z,100.00
2023-05-14T05:23:10.963Z,100.00
2023-05-14T05:25:37.563Z,100.00
2023-05-14T05:28:04.197Z,100.00
2023-05-14T05:30:30.775Z,100.00
2023-05-14T05:32:57.639Z,100.00
2023-05-14T05:35:24.583Z,100.00
2023-05-14T05:37:51.141Z,100.00
2023-05-14T05:40:17.904Z,100.00
2023-05-14T05:42:44.463Z,100.00
2023-05-14T05:45:11.264Z,100.00
2023-05-14T05:47:37.870Z,100.00
2023-05-14T05:50:04.969Z,100.00
2023-05-14T05:52:31.605Z,100.00
2023-05-14T05:54:58.268Z,100.00
2023-05-14T05:57:27.058Z,100.00
2023-05-14T05:59:53.809Z,100.00
2023-05-14T06:02:20.660Z,100.00
2023-05-14T06:04:47.303Z,100.00
2023-05-14T06:07:13.830Z,100.00
2023-05-14T06:09:40.406Z,100.00
2023-05-14T06:12:07.341Z,100.00
2023-05-14T06:14:33.859Z,100.00
2023-05-14T06:17:00.910Z,100.00
2023-05-14T06:19:27.513Z,100.00
2023-05-14T06:21:54.017Z,100.00
2023-05-14T06:24:21.076Z,100.00
2023-05-14T06:26:48.805Z,100.00
2023-05-14T06:29:15.415Z,100.00
2023-05-14T06:31:42.070Z,100.00
2023-05-14T06:34:09.128Z,100.00
2023-05-14T06:36:35.636Z,100.00
2023-05-14T06:39:02.157Z,87.20
2023-05-14T06:41:29.568Z,81.82
2023-05-14T06:43:56.081Z,84.23
2023-05-14T06:46:22.647Z,83.22
2023-05-14T06:48:49.315Z,84.69
2023-05-14T06:51:16.881Z,80.62
2023-05-14T06:53:43.462Z,77.31
2023-05-14T06:56:09.988Z,74.12
2023-05-14T06:58:36.482Z,69.57
2023-05-14T07:01:03.141Z,70.44
2023-05-14T07:03:29.715Z,70.33
2023-05-14T07:05:56.220Z,73.15
2023-05-14T07:08:22.782Z,67.27
2023-05-14T07:10:49.317Z,63.25
2023-05-14T07:13:15.849Z,62.45
2023-05-14T07:15:42.399Z,68.65
2023-05-14T07:18:08.950Z,72.64
2023-05-14T07:20:35.686Z,67.87
2023-05-14T07:23:02.296Z,68.34
2023-05-14T07:25:28.794Z,68.78
2023-05-14T07:27:55.752Z,67.39
2023-05-14T07:30:22.498Z,67.30
2023-05-14T07:32:49.292Z,66.25
2023-05-14T07:35:16.121Z,66.00
2023-05-14T07:37:42.991Z,69.96
2023-05-14T07:40:09.932Z,67.08
2023-05-14T07:42:37.443Z,68.19
2023-05-14T07:45:05.291Z,65.13
2023-05-14T07:47:32.404Z,68.67
2023-05-14T07:49:59.232Z,73.10
2023-05-14T07:52:25.827Z,67.52
2023-05-14T07:54:52.685Z,66.11
2023-05-14T07:57:20.014Z,65.06
2023-05-14T07:59:47.769Z,62.66
2023-05-14T08:02:16.060Z,62.89
2023-05-14T08:04:43.010Z,65.20
2023-05-14T08:07:09.931Z,65.56
2023-05-14T08:09:36.802Z,65.36
2023-05-14T08:12:03.941Z,64.38
2023-05-14T08:14:30.500Z,64.97
2023-05-14T08:16:57.194Z,62.76
2023-05-14T08:19:24.495Z,63.57
2023-05-14T08:21:51.421Z,64.40
2023-05-14T08:24:18.897Z,65.40
2023-05-14T08:26:45.532Z,67.10
2023-05-14T08:29:13.442Z,66.22
2023-05-14T08:31:42.219Z,67.35
2023-05-14T08:34:08.835Z,68.38
2023-05-14T08:36:35.465Z,62.90
2023-05-14T08:39:01.995Z,63.46
2023-05-14T08:41:28.891Z,62.18
2023-05-14T08:44:14.092Z,61.47
2023-05-14T08:46:41.550Z,58.37
2023-05-14T08:49:31.823Z,58.29
2023-05-14T08:51:59.608Z,58.35
2023-05-14T08:54:27.091Z,57.47
2023-05-14T08:56:53.966Z,56.72
2023-05-14T08:59:20.667Z,57.27
2023-05-14T09:01:51.565Z,55.96
2023-05-14T09:04:22.165Z,57.31
2023-05-14T09:06:51.093Z,57.44
2023-05-14T09:09:18.295Z,58.62
2023-05-14T09:11:50.056Z,60.19
2023-05-14T09:14:17.150Z,60.82
2023-05-14T09:16:49.092Z,57.91
2023-05-14T09:19:18.859Z,58.04
2023-05-14T09:21:46.148Z,56.65
2023-05-14T09:24:24.102Z,55.36
2023-05-14T09:26:54.677Z,57.21
2023-05-14T09:29:21.369Z,54.40
2023-05-14T09:31:51.417Z,53.52
2023-05-14T09:34:32.137Z,55.04
2023-05-14T09:37:01.677Z,53.57
2023-05-14T09:39:29.405Z,50.99
2023-05-14T09:41:56.957Z,51.42
2023-05-14T09:44:24.313Z,50.83
2023-05-14T09:46:51.656Z,47.37
2023-05-14T09:49:18.666Z,45.18
2023-05-14T09:51:45.305Z,46.51
2023-05-14T09:54:12.061Z,45.57
2023-05-14T09:56:39.622Z,42.35
2023-05-14T09:59:06.324Z,40.87
2023-05-14T10:01:33.551Z,38.29
2023-05-14T10:04:01.091Z,37.29
2023-05-14T10:06:30.446Z,37.85
2023-05-14T10:09:01.895Z,36.43
2023-05-14T10:11:31.781Z,36.06
2023-05-14T10:14:20.704Z,38.45
2023-05-14T10:16:50.745Z,38.73
2023-05-14T10:19:20.753Z,41.25
2023-05-14T10:21:58.086Z,37.88
2023-05-14T10:24:25.212Z,39.15
2023-05-14T10:26:52.127Z,39.00
2023-05-14T10:29:18.691Z,38.07
2023-05-14T10:31:51.208Z,37.75
2023-05-14T10:34:37.903Z,38.14
2023-05-14T10:37:25.493Z,34.70
2023-05-14T10:40:08.201Z,35.19
2023-05-14T10:42:43.413Z,35.75
2023-05-14T10:45:12.548Z,36.47
2023-05-14T10:47:42.536Z,34.54
2023-05-14T10:50:11.885Z,34.43
2023-05-14T10:52:42.309Z,33.55
2023-05-14T10:55:10.334Z,33.73
2023-05-14T10:57:42.132Z,33.25
2023-05-14T11:00:09.205Z,31.17
2023-05-14T11:02:38.155Z,31.24
2023-05-14T11:05:17.093Z,30.43
2023-05-14T11:07:45.421Z,28.94
2023-05-14T11:10:14.588Z,27.52
2023-05-14T11:12:43.832Z,27.84
2023-05-14T11:15:16.169Z,27.16
2023-05-14T11:17:44.387Z,27.85
2023-05-14T11:20:11.969Z,28.51
2023-05-14T11:22:41.326Z,27.31
2023-05-14T11:25:09.763Z,27.11
2023-05-14T11:27:39.434Z,27.16
2023-05-14T11:30:13.262Z,27.05
2023-05-14T11:32:40.806Z,26.98
2023-05-14T11:35:07.747Z,24.98
2023-05-14T11:37:34.340Z,25.05
2023-05-14T11:40:01.696Z,28.56
2023-05-14T11:42:28.361Z,27.67
2023-05-14T11:44:55.106Z,25.03
2023-05-14T11:47:22.539Z,24.38
2023-05-14T11:49:49.586Z,24.58
2023-05-14T11:52:19.350Z,23.22
2023-05-14T11:54:46.316Z,22.74
2023-05-14T11:57:16.167Z,27.82
2023-05-14T11:59:43.159Z,30.48
2023-05-14T12:02:17.668Z,34.75
2023-05-14T12:04:49.925Z,35.30
2023-05-14T12:07:16.741Z,34.18
2023-05-14T12:09:49.761Z,36.67
2023-05-14T12:12:21.980Z,37.88
2023-05-14T12:14:49.456Z,36.56
2023-05-14T12:17:23.409Z,34.78
2023-05-14T12:19:53.397Z,35.56
2023-05-14T12:22:22.445Z,37.02
2023-05-14T12:24:57.132Z,29.73
2023-05-14T12:27:28.012Z,31.77
2023-05-14T12:32:35.812Z,36.74
2023-05-14T12:35:02.484Z,39.44
2023-05-14T12:37:31.122Z,41.04
2023-05-14T12:39:57.913Z,41.54
2023-05-14T12:42:24.533Z,40.36
2023-05-14T12:44:51.100Z,40.18
2023-05-14T12:47:17.964Z,38.13
2023-05-14T12:49:44.698Z,36.63
2023-05-14T12:54:43.334Z,34.05
2023-05-14T12:57:10.249Z,34.84
2023-05-14T12:59:36.898Z,34.79
2023-05-14T13:02:03.637Z,36.17
2023-05-14T13:04:30.246Z,36.41
2023-05-14T13:06:56.826Z,35.75
2023-05-14T13:09:23.421Z,33.44
2023-05-14T13:11:50.029Z,33.31
2023-05-14T13:14:17.856Z,32.68
2023-05-14T13:16:45.597Z,32.76
2023-05-14T13:19:12.248Z,33.05
2023-05-14T13:21:38.842Z,31.88
2023-05-14T13:24:05.639Z,32.44
2023-05-14T13:26:32.170Z,32.32
2023-05-14T13:28:58.682Z,32.75
2023-05-14T13:31:25.290Z,32.92
2023-05-14T13:33:51.952Z,31.53
2023-05-14T13:36:18.658Z,30.95
2023-05-14T13:38:48.452Z,29.38
2023-05-14T13:41:15.265Z,29.66
2023-05-14T13:43:41.825Z,29.43
2023-05-14T13:46:08.470Z,29.88
2023-05-14T13:48:37.073Z,29.94
2023-05-14T13:51:03.664Z,31.25
2023-05-14T13:53:30.614Z,30.97
2023-05-14T13:55:58.379Z,31.45
2023-05-14T13:58:25.947Z,31.95
2023-05-14T14:00:53.106Z,33.45
2023-05-14T14:03:20.262Z,34.37
2023-05-14T14:05:46.872Z,34.41
2023-05-14T14:10:48.489Z,34.58
2023-05-14T14:13:15.081Z,33.57
2023-05-14T14:15:41.711Z,34.06
2023-05-14T14:18:08.357Z,34.10
2023-05-14T14:20:35.130Z,35.20
2023-05-14T14:23:01.978Z,34.23
2023-05-14T14:25:28.579Z,34.29
2023-05-14T14:27:55.173Z,33.61
2023-05-14T14:30:21.688Z,32.33
2023-05-14T14:32:49.192Z,33.01
2023-05-14T14:35:17.451Z,33.19
2023-05-14T14:37:48.908Z,33.26
2023-05-14T14:40:16.817Z,33.81
2023-05-14T14:42:43.853Z,33.79
2023-05-14T14:45:11.409Z,33.60
2023-05-14T14:47:38.057Z,33.90
2023-05-14T14:50:05.895Z,33.91
2023-05-14T14:52:32.632Z,34.32
2023-05-14T14:54:59.152Z,33.29
2023-05-14T14:57:26.700Z,34.10
2023-05-14T14:59:53.262Z,34.27
2023-05-14T15:02:19.926Z,34.01
2023-05-14T15:04:46.630Z,34.88
2023-05-14T15:07:13.690Z,34.42
2023-05-14T15:09:40.273Z,34.09
2023-05-14T15:12:08.863Z,34.33
2023-05-14T15:14:35.561Z,34.14
2023-05-14T15:17:02.281Z,34.32
2023-05-14T15:19:29.599Z,34.73
2023-05-14T15:21:56.141Z,35.24
2023-05-14T15:24:25.037Z,35.80
2023-05-14T15:26:53.337Z,34.48
2023-05-14T15:29:20.198Z,34.14
2023-05-14T15:31:46.990Z,34.14
2023-05-14T15:34:13.670Z,34.29
2023-05-14T15:36:40.500Z,35.87
2023-05-14T15:39:10.174Z,36.17
2023-05-14T15:41:37.034Z,37.03
2023-05-14T15:44:03.895Z,38.57
2023-05-14T15:46:31.040Z,39.23
2023-05-14T15:48:58.185Z,39.53
2023-05-14T15:51:24.819Z,39.88
2023-05-14T15:53:53.387Z,40.79
2023-05-14T15:56:21.073Z,41.17
2023-05-14T15:58:48.175Z,41.98
2023-05-14T16:01:14.873Z,42.07
2023-05-14T16:03:41.636Z,42.87
2023-05-14T16:06:08.331Z,43.24
2023-05-14T16:08:34.874Z,44.53
2023-05-14T16:11:01.435Z,44.30
2023-05-14T16:13:27.960Z,44.71
2023-05-14T16:15:54.566Z,44.23
2023-05-14T16:18:22.031Z,44.51
2023-05-14T16:20:48.664Z,44.63
2023-05-14T16:23:15.170Z,45.89
2023-05-14T16:25:41.760Z,46.83
2023-05-14T16:28:08.349Z,46.19
2023-05-14T16:30:34.990Z,46.06
2023-05-14T16:33:01.613Z,46.44
2023-05-14T16:35:28.224Z,47.59
2023-05-14T16:37:54.846Z,48.36
2023-05-14T16:40:23.372Z,48.36
2023-05-14T16:42:51.088Z,47.60
2023-05-14T16:45:17.944Z,47.81
2023-05-14T16:47:44.532Z,47.77
2023-05-14T16:50:11.251Z,48.86
2023-05-14T16:52:37.801Z,47.89
2023-05-14T16:55:04.842Z,47.93
2023-05-14T16:57:31.572Z,47.92
2023-05-14T16:59:58.145Z,48.83
2023-05-14T17:02:24.694Z,49.34
2023-05-14T17:04:51.371Z,49.35
2023-05-14T17:07:18.057Z,50.60
2023-05-14T17:09:44.606Z,50.36
2023-05-14T17:12:13.028Z,51.00
2023-05-14T17:14:39.663Z,51.85
2023-05-14T17:17:06.344Z,53.46
2023-05-14T17:19:32.923Z,54.08
2023-05-14T17:21:59.598Z,55.08
2023-05-14T17:24:26.219Z,58.14
2023-05-14T17:26:53.098Z,58.72
2023-05-14T17:29:20.282Z,58.17
2023-05-14T17:31:48.230Z,54.43
2023-05-14T17:34:14.928Z,55.07
2023-05-14T17:36:41.602Z,56.26
2023-05-14T17:39:08.141Z,56.20
2023-05-14T17:41:35.047Z,55.77
2023-05-14T17:44:01.583Z,56.08
2023-05-14T17:46:28.357Z,56.49
2023-05-14T17:48:56.249Z,55.00
2023-05-14T17:51:22.768Z,55.64
2023-05-14T17:53:49.278Z,54.49
2023-05-14T17:56:17.581Z,54.22
2023-05-14T17:58:44.945Z,55.81
2023-05-14T18:01:11.897Z,56.70
2023-05-14T18:03:38.585Z,60.95
2023-05-14T18:06:05.291Z,75.42
2023-05-14T18:08:31.856Z,88.28
2023-05-14T18:11:00.639Z,95.63
2023-05-14T18:13:27.231Z,100.00
2023-05-14T18:15:54.334Z,100.00
2023-05-14T18:18:21.667Z,100.00
2023-05-14T18:20:49.385Z,100.00
2023-05-14T18:23:16.162Z,100.00
2023-05-14T18:25:42.957Z,100.00
2023-05-14T18:28:09.682Z,100.00
2023-05-14T18:30:36.263Z,100.00
2023-05-14T18:33:03.420Z,100.00
2023-05-14T18:35:30.158Z,100.00
2023-05-14T18:37:56.787Z,100.00
2023-05-14T18:40:23.394Z,100.00
2023-05-14T18:42:49.983Z,100.00
2023-05-14T18:45:16.571Z,100.00
2023-05-14T18:47:43.312Z,100.00
2023-05-14T18:50:10.263Z,100.00
2023-05-14T18:52:36.942Z,100.00
2023-05-14T18:55:03.739Z,100.00
2023-05-14T18:57:32.138Z,100.00
2023-05-14T19:00:01.165Z,100.00
2023-05-14T19:02:28.565Z,100.00
2023-05-14T19:04:55.645Z,100.00
2023-05-14T19:07:22.555Z,100.00
2023-05-14T19:09:49.263Z,100.00
2023-05-14T19:12:16.081Z,100.00
2023-05-14T19:14:42.768Z,100.00
2023-05-14T19:17:09.492Z,100.00
2023-05-14T19:19:36.449Z,100.00
2023-05-14T19:22:03.021Z,100.00
2023-05-14T19:24:30.210Z,100.00
2023-05-14T19:26:56.805Z,100.00
2023-05-14T19:29:23.371Z,100.00
2023-05-14T19:31:50.005Z,100.00
2023-05-14T19:34:16.803Z,100.00
2023-05-14T19:36:43.457Z,100.00
2023-05-14T19:39:10.787Z,100.00
2023-05-14T19:41:37.405Z,100.00
2023-05-14T19:44:04.028Z,100.00
2023-05-14T19:46:30.683Z,100.00
2023-05-14T19:48:57.265Z,100.00
2023-05-14T19:51:23.852Z,100.00
2023-05-14T19:53:50.455Z,100.00
2023-05-14T19:56:17.119Z,100.00
2023-05-14T19:58:44.273Z,100.00
2023-05-14T20:01:11.968Z,100.00
2023-05-14T20:03:38.867Z,100.00
2023-05-14T20:06:06.980Z,100.00
2023-05-14T20:08:33.722Z,100.00
2023-05-14T20:11:00.343Z,100.00
2023-05-14T20:13:27.008Z,100.00
2023-05-14T20:15:55.018Z,100.00
2023-05-14T20:18:21.846Z,100.00
2023-05-14T20:20:49.062Z,100.00
2023-05-14T20:23:15.918Z,100.00
2023-05-14T20:25:43.098Z,100.00
2023-05-14T20:28:10.169Z,100.00
2023-05-14T20:30:36.870Z,100.00
2023-05-14T20:33:04.035Z,100.00
2023-05-14T20:35:31.109Z,100.00
2023-05-14T20:37:57.669Z,100.00
2023-05-14T20:40:25.283Z,100.00
2023-05-14T20:42:52.191Z,100.00
2023-05-14T20:45:19.009Z,100.00
2023-05-14T20:47:45.625Z,100.00
2023-05-14T20:50:13.610Z,100.00
2023-05-14T20:52:40.457Z,100.00
2023-05-14T20:55:07.598Z,100.00
2023-05-14T20:57:34.236Z,100.00
2023-05-14T21:00:02.047Z,100.00
2023-05-14T21:02:28.743Z,100.00
2023-05-14T21:04:55.466Z,100.00
2023-05-14T21:07:22.130Z,100.00
2023-05-14T21:09:52.216Z,100.00
2023-05-14T21:12:19.383Z,100.00
2023-05-14T21:14:46.065Z,100.00
2023-05-14T21:17:12.695Z,100.00
2023-05-14T21:19:39.547Z,100.00
2023-05-14T21:22:06.737Z,100.00
2023-05-14T21:24:33.239Z,100.00
2023-05-14T21:26:59.819Z,100.00
2023-05-14T21:29:26.335Z,100.00
2023-05-14T21:31:52.916Z,100.00
2023-05-14T21:34:19.520Z,100.00
2023-05-14T21:36:46.480Z,100.00
2023-05-14T21:39:13.710Z,100.00
2023-05-14T21:41:40.411Z,100.00
2023-05-14T21:44:06.934Z,100.00
2023-05-14T21:46:33.786Z,100.00
2023-05-14T21:49:00.514Z,100.00
2023-05-14T21:51:27.157Z,100.00
2023-05-14T21:53:53.722Z,100.00
2023-05-14T21:56:21.076Z,100.00
2023-05-14T21:58:47.708Z,100.00
2023-05-14T22:01:14.519Z,100.00
2023-05-14T22:03:41.457Z,100.00
2023-05-14T22:06:08.098Z,100.00
2023-05-14T22:08:34.706Z,100.00
2023-05-14T22:11:01.328Z,100.00
2023-05-14T22:13:28.431Z,100.00
2023-05-14T22:16:01.447Z,100.00
2023-05-14T22:18:36.592Z,100.00
2023-05-14T22:21:04.831Z,100.00
2023-05-14T22:23:31.425Z,100.00
2023-05-14T22:25:58.199Z,100.00
2023-05-14T22:28:24.852Z,100.00
2023-05-14T22:30:51.439Z,100.00
2023-05-14T22:33:19.310Z,100.00
2023-05-14T22:35:46.072Z,100.00
2023-05-14T22:38:13.770Z,100.00
2023-05-14T22:40:40.445Z,100.00
2023-05-14T22:43:06.961Z,100.00
2023-05-14T22:45:33.727Z,100.00
2023-05-14T22:48:00.427Z,100.00
2023-05-14T22:50:26.993Z,100.00
2023-05-14T22:52:53.563Z,100.00
2023-05-14T22:55:20.185Z,100.00
2023-05-14T22:57:46.893Z,100.00
2023-05-14T23:00:13.903Z,100.00
2023-05-14T23:02:40.759Z,100.00
2023-05-14T23:05:10.555Z,100.00
2023-05-14T23:07:37.357Z,100.00
2023-05-14T23:10:04.207Z,100.00
2023-05-14T23:12:30.899Z,100.00
2023-05-14T23:14:59.131Z,100.00
2023-05-14T23:17:26.192Z,100.00
2023-05-14T23:19:53.015Z,100.00
2023-05-14T23:22:19.786Z,100.00
2023-05-14T23:24:46.334Z,100.00
2023-05-14T23:27:12.942Z,100.00
2023-05-14T23:29:39.529Z,100.00
2023-05-14T23:32:06.596Z,100.00
2023-05-14T23:34:33.198Z,100.00
2023-05-14T23:36:59.805Z,100.00
2023-05-14T23:39:26.774Z,100.00
2023-05-14T23:41:53.413Z,100.00
2023-05-14T23:44:20.141Z,100.00
2023-05-14T23:46:46.731Z,100.00
2023-05-14T23:49:13.344Z,100.00
2023-05-14T23:51:39.951Z,100.00
2023-05-14T23:54:06.494Z,100.00
2023-05-14T23:56:34.326Z,100.00
2023-05-14T23:59:01.053Z,100.00
